Impacts TAF Board INFO
FOR SITUATIONAL AWARENESS. NOT TO BE USED FOR FLIGHT PLANNING PURPOSES.
IDs:

KSTL - St Louis/Lambert Int, MO, US

Issued at 0859 UTC 20 Sep 2017
Updated at 1050 UTC 20 Sep 2017
Potential Impact None Slight Moderate High
Time0951Z 20/11Z 20/12Z 20/13Z 20/14Z 20/15Z 20/16Z 20/17Z 20/18Z 20/19Z 20/20Z 20/21Z 20/22Z 20/23Z>>
Type OBS PRVL PRVL PRVL PRVL PRVL PRVL PRVL PRVL PRVL PRVL PRVL PRVL PRVL
VIS 10 >6 >6 >6 >6 >6 >6 >6 >6 >6 >6 >6 >6 >6
CIG -- -- -- -- -- -- -- -- -- -- -- -- -- --
Cover CLR SKC SKC SKC SKC SCT SCT SCT SCT SCT SCT SCT SCT SCT
FltCat VFR VFR VFR VFR VFR VFR VFR VFR VFR VFR VFR VFR VFR VFR
WX -- -- -- -- -- -- -- -- -- -- -- -- -- --
WDir 160 180 180 180 180 190 190 190 190 190 190 190 190 190
WSpd 5 7 7 7 7 11 11 11 11 11 11 11 11 11
WGst -- -- -- -- -- -- -- -- -- -- -- -- -- --

Raw TAF
KSTL 200859Z 2009/2112 18007KT P6SM SKC
  FM201500 19011KT P6SM SCT250
  FM210100 18008KT P6SM SCT250


Raw METAR
KSTL 200951Z 16005KT 10SM CLR 23/21 A2987 RMK AO2 SLP102 T02330206
KSTL 200851Z 18006KT 10SM CLR 24/21 A2986 RMK AO2 SLP098 T02390206 58004
KSTL 200751Z 17006KT 10SM CLR 24/21 A2987 RMK AO2 SLP100 T02440206

METAR Board
Radar Display
Forecast Discussion

FOR SITUATIONAL AWARENESS. NOT TO BE USED FOR FLIGHT PLANNING PURPOSES.